KCPS/CPS METAR and TAF weather

Enter ICAO airport designator
Station Type Date Time Source
KCPS METAR 2020/07/09 07:53 UTC NOAA

KCPS 090753Z AUTO 00000KT 10SM CLR 23/22 A2987 RMK AO2 SLP109 T02280222


Station Type Date Time Source
KCPS Decoded METAR 2020/07/09 07:53 UTC NOAA

ST LOUIS DOWNTOWN AIRPORT, IL, United States (KCPS) 38-34N 090-09W 126M
Jul 09, 2020 - 03:53 AM EDT / 2020.07.09 0753 UTC
Wind: Calm:0
Visibility: 10 mile(s):0
Sky conditions: clear
Temperature: 73.0 F (22.8 C)
Dew Point: 72.0 F (22.2 C)
Relative Humidity: 96%
Pressure (altimeter): 29.87 in. Hg (1011 hPa)
ob: KCPS 090753Z AUTO 00000KT 10SM CLR 23/22 A2987 RMK AO2 SLP109 T02280222
cycle: 8

Station Type Date Time Source
KCPS TAF 2020/07/09 06:36 UTC NOAA

TAF KCPS 090534Z 0906/1006 00000KT P6SM SKC
FM091600 19005KT P6SM SCT050
FM092100 20008KT P6SM VCTS BKN050CB
FM100500 25005KT P6SM SCT070

Example: see airport list